createdAt,value
2023-01-08T00:00:29.341Z,59.65
2023-01-08T00:04:23.708Z,58.38
2023-01-08T00:06:13.901Z,55.70
2023-01-08T00:08:00.971Z,57.50
2023-01-08T00:09:50.563Z,57.58
2023-01-08T00:11:38.087Z,58.33
2023-01-08T00:13:25.449Z,54.92
2023-01-08T00:15:12.554Z,55.95
2023-01-08T00:17:00.122Z,53.33
2023-01-08T00:18:47.858Z,52.70
2023-01-08T00:20:35.020Z,50.97
2023-01-08T00:22:22.396Z,49.20
2023-01-08T00:24:09.524Z,49.40
2023-01-08T00:25:56.829Z,49.25
2023-01-08T00:27:44.813Z,49.88
2023-01-08T00:29:31.919Z,48.88
2023-01-08T00:31:19.052Z,49.28
2023-01-08T00:33:06.453Z,50.10
2023-01-08T00:34:54.719Z,48.75
2023-01-08T00:36:41.786Z,50.15
2023-01-08T00:38:29.872Z,52.78
2023-01-08T00:40:17.774Z,50.42
2023-01-08T00:42:05.097Z,53.00
2023-01-08T00:43:52.504Z,50.80
2023-01-08T00:45:39.652Z,49.60
2023-01-08T00:47:26.737Z,50.13
2023-01-08T00:49:14.165Z,48.55
2023-01-08T00:51:03.419Z,47.05
2023-01-08T00:52:50.593Z,49.33
2023-01-08T00:54:38.016Z,46.78
2023-01-08T00:56:25.161Z,44.97
2023-01-08T00:58:13.170Z,47.08
2023-01-08T01:00:00.934Z,44.20
2023-01-08T01:01:48.228Z,43.03
2023-01-08T01:03:35.413Z,43.83
2023-01-08T01:05:22.787Z,39.10
2023-01-08T01:07:09.923Z,41.90
2023-01-08T01:08:57.363Z,42.87
2023-01-08T01:10:44.788Z,42.75
2023-01-08T01:12:31.851Z,40.53
2023-01-08T01:14:19.147Z,41.08
2023-01-08T01:16:06.838Z,42.95
2023-01-08T01:17:54.011Z,42.03
2023-01-08T01:19:41.405Z,42.85
2023-01-08T01:21:31.308Z,43.35
2023-01-08T01:23:18.367Z,42.88
2023-01-08T01:25:06.222Z,43.85
2023-01-08T01:26:53.703Z,42.35
2023-01-08T01:28:41.031Z,42.15
2023-01-08T01:30:28.118Z,42.65
2023-01-08T01:32:15.697Z,40.47
2023-01-08T01:34:02.751Z,41.13
2023-01-08T01:35:49.820Z,41.47
2023-01-08T01:37:37.231Z,40.55
2023-01-08T01:39:24.406Z,39.72
2023-01-08T01:41:29.411Z,38.30
2023-01-08T01:43:32.391Z,37.90
2023-01-08T01:45:21.075Z,37.22
2023-01-08T01:47:23.175Z,38.25
2023-01-08T01:49:14.277Z,37.30
2023-01-08T01:51:01.471Z,37.33
2023-01-08T01:53:20.850Z,38.40
2023-01-08T01:55:11.431Z,37.35
2023-01-08T01:57:00.924Z,38.90
2023-01-08T01:58:48.062Z,39.20
2023-01-08T02:00:35.625Z,39.92
2023-01-08T02:02:23.142Z,39.30
2023-01-08T02:04:14.443Z,39.30
2023-01-08T02:06:14.449Z,38.13
2023-01-08T02:08:12.573Z,36.65
2023-01-08T02:10:22.503Z,37.90
2023-01-08T02:12:53.226Z,38.53
2023-01-08T02:14:55.079Z,36.20
2023-01-08T02:16:55.920Z,36.45
2023-01-08T02:19:09.554Z,36.90
2023-01-08T02:21:05.090Z,37.00
2023-01-08T02:23:14.684Z,36.30
2023-01-08T02:25:07.425Z,39.58
2023-01-08T02:26:57.400Z,38.72
2023-01-08T02:28:49.742Z,40.25
2023-01-08T02:30:37.543Z,40.13
2023-01-08T02:32:28.933Z,39.03
2023-01-08T02:34:16.289Z,39.45
2023-01-08T02:36:36.958Z,39.72
2023-01-08T02:38:24.831Z,37.58
2023-01-08T02:40:12.070Z,37.97
2023-01-08T02:42:18.384Z,38.25
2023-01-08T02:44:08.314Z,38.92
2023-01-08T02:46:01.133Z,39.40
2023-01-08T02:47:59.078Z,37.85
2023-01-08T02:51:40.308Z,33.80
2023-01-08T02:53:42.167Z,37.45
2023-01-08T02:55:31.958Z,35.10
2023-01-08T02:57:20.608Z,38.20
2023-01-08T02:59:11.127Z,36.95
2023-01-08T03:01:02.249Z,38.97
2023-01-08T03:02:56.893Z,36.38
2023-01-08T03:04:52.986Z,38.10
2023-01-08T03:06:40.601Z,37.67
2023-01-08T03:08:29.085Z,37.25
2023-01-08T03:10:18.016Z,36.03
2023-01-08T03:12:12.018Z,37.55
2023-01-08T03:14:20.968Z,37.05
2023-01-08T03:16:16.688Z,35.72
2023-01-08T03:18:12.591Z,35.13
2023-01-08T03:20:08.869Z,35.67
2023-01-08T03:21:56.710Z,36.83
2023-01-08T03:23:45.289Z,35.90
2023-01-08T03:25:34.029Z,35.95
2023-01-08T03:27:28.496Z,35.97
2023-01-08T03:29:19.040Z,34.53
2023-01-08T03:31:07.576Z,35.42
2023-01-08T03:32:57.616Z,34.20
2023-01-08T03:34:47.392Z,34.42
2023-01-08T03:36:36.712Z,33.97
2023-01-08T03:38:36.528Z,33.47
2023-01-08T03:40:39.185Z,35.10
2023-01-08T03:42:28.582Z,33.63
2023-01-08T03:44:16.616Z,33.72
2023-01-08T03:46:08.192Z,33.45
2023-01-08T03:47:57.052Z,32.47
2023-01-08T03:49:45.997Z,35.58
2023-01-08T03:51:43.339Z,34.92
2023-01-08T03:53:30.399Z,33.15
2023-01-08T03:55:17.896Z,33.70
2023-01-08T03:57:05.042Z,34.55
2023-01-08T03:58:52.082Z,33.97
2023-01-08T04:00:40.069Z,33.88
2023-01-08T04:02:27.257Z,33.60
2023-01-08T04:04:14.469Z,32.63
2023-01-08T04:06:02.124Z,31.85
2023-01-08T04:07:49.206Z,32.83
2023-01-08T04:09:36.269Z,32.70
2023-01-08T04:11:23.894Z,32.95
2023-01-08T04:13:10.984Z,32.70
2023-01-08T04:14:58.123Z,31.50
2023-01-08T04:16:45.741Z,33.97
2023-01-08T04:18:32.861Z,33.85
2023-01-08T04:20:20.028Z,32.40
2023-01-08T04:22:09.143Z,33.42
2023-01-08T04:23:56.265Z,33.55
2023-01-08T04:25:43.412Z,33.53
2023-01-08T04:27:30.826Z,34.17
2023-01-08T04:29:17.935Z,33.22
2023-01-08T04:31:08.918Z,33.13
2023-01-08T04:32:56.409Z,33.20
2023-01-08T04:34:43.435Z,34.40
2023-01-08T04:36:30.804Z,34.38
2023-01-08T04:38:18.276Z,34.60
2023-01-08T04:40:06.093Z,34.95
2023-01-08T04:43:40.579Z,33.47
2023-01-08T04:45:27.664Z,35.38
2023-01-08T04:47:15.260Z,34.25
2023-01-08T04:49:02.610Z,36.47
2023-01-08T04:50:51.163Z,35.35
2023-01-08T04:52:38.316Z,36.63
2023-01-08T04:54:25.769Z,34.83
2023-01-08T04:56:13.031Z,37.85
2023-01-08T04:58:00.176Z,36.42
2023-01-08T04:59:47.664Z,36.83
2023-01-08T05:01:34.853Z,35.97
2023-01-08T05:03:22.076Z,35.85
2023-01-08T05:05:09.795Z,36.90
2023-01-08T05:06:57.029Z,36.03
2023-01-08T05:08:44.169Z,36.65
2023-01-08T05:10:31.616Z,35.83
2023-01-08T05:12:18.938Z,36.38
2023-01-08T05:14:06.213Z,37.78
2023-01-08T05:15:53.777Z,36.70
2023-01-08T05:17:40.877Z,37.22
2023-01-08T05:19:27.935Z,36.78
2023-01-08T05:21:15.667Z,37.30
2023-01-08T05:23:02.872Z,36.45
2023-01-08T05:24:49.930Z,36.63
2023-01-08T05:26:37.362Z,37.45
2023-01-08T05:28:24.771Z,36.95
2023-01-08T05:30:12.496Z,36.83
2023-01-08T05:33:46.886Z,36.13
2023-01-08T05:35:33.990Z,36.97
2023-01-08T05:37:21.508Z,36.80
2023-01-08T05:39:08.564Z,37.15
2023-01-08T05:40:55.643Z,36.58
2023-01-08T05:42:43.035Z,36.85
2023-01-08T05:44:30.561Z,38.17
2023-01-08T05:46:17.849Z,36.42
2023-01-08T05:48:07.067Z,36.90
2023-01-08T05:49:54.161Z,36.97
2023-01-08T05:51:41.252Z,36.75
2023-01-08T05:53:28.772Z,37.08
2023-01-08T05:55:16.261Z,37.33
2023-01-08T05:57:03.318Z,38.00
2023-01-08T05:58:54.279Z,36.67
2023-01-08T06:00:41.393Z,37.90
2023-01-08T06:02:28.698Z,38.05
2023-01-08T06:04:16.127Z,36.53
2023-01-08T06:06:06.265Z,37.42
2023-01-08T06:07:53.393Z,37.45
2023-01-08T06:09:40.829Z,38.50
2023-01-08T06:11:27.882Z,36.93
2023-01-08T06:13:14.967Z,38.97
2023-01-08T06:15:02.682Z,39.72
2023-01-08T06:16:49.883Z,39.35
2023-01-08T06:18:37.066Z,38.65
2023-01-08T06:20:24.526Z,36.10
2023-01-08T06:22:11.602Z,36.50
2023-01-08T06:23:58.695Z,36.63
2023-01-08T06:25:53.044Z,37.72
2023-01-08T06:27:40.748Z,35.78
2023-01-08T06:29:27.869Z,37.88
2023-01-08T06:31:15.273Z,37.33
2023-01-08T06:33:02.676Z,37.05
2023-01-08T06:34:49.824Z,36.40
2023-01-08T06:36:37.183Z,36.15
2023-01-08T06:38:24.321Z,36.03
2023-01-08T06:40:11.755Z,37.17
2023-01-08T06:41:59.221Z,36.72
2023-01-08T06:43:46.238Z,37.35
2023-01-08T06:45:33.582Z,38.03
2023-01-08T06:47:20.977Z,36.67
2023-01-08T06:49:08.294Z,37.22
2023-01-08T06:50:56.295Z,37.08
2023-01-08T06:52:43.808Z,36.75
2023-01-08T06:54:30.893Z,35.38
2023-01-08T06:56:19.255Z,36.70
2023-01-08T06:58:06.819Z,36.90
2023-01-08T06:59:54.188Z,37.28
2023-01-08T07:01:41.605Z,37.28
2023-01-08T07:03:29.212Z,37.83
2023-01-08T07:05:16.827Z,36.28
2023-01-08T07:07:04.040Z,37.83
2023-01-08T07:08:51.886Z,37.40
2023-01-08T07:10:39.271Z,37.22
2023-01-08T07:12:29.500Z,35.75
2023-01-08T07:14:17.259Z,35.83
2023-01-08T07:16:13.003Z,35.28
2023-01-08T07:18:00.456Z,36.33
2023-01-08T07:19:47.972Z,34.92
2023-01-08T07:21:37.731Z,35.00
2023-01-08T07:23:25.022Z,35.67
2023-01-08T07:25:12.578Z,35.47
2023-01-08T07:26:59.878Z,35.95
2023-01-08T07:28:47.239Z,26.90
2023-01-08T07:30:34.812Z,35.08
2023-01-08T07:32:22.307Z,34.90
2023-01-08T07:34:09.533Z,34.90
2023-01-08T07:35:57.342Z,34.17
2023-01-08T07:37:44.731Z,35.22
2023-01-08T07:39:32.247Z,34.28
2023-01-08T07:41:19.827Z,34.50
2023-01-08T07:43:07.266Z,34.65
2023-01-08T07:44:54.348Z,35.45
2023-01-08T07:46:42.152Z,35.15
2023-01-08T07:48:32.184Z,34.33
2023-01-08T07:50:19.460Z,34.30
2023-01-08T07:52:06.907Z,33.30
2023-01-08T07:53:56.339Z,34.70
2023-01-08T07:55:43.710Z,33.85
2023-01-08T07:57:31.956Z,33.72
2023-01-08T08:01:10.367Z,34.40
2023-01-08T08:03:03.757Z,33.80
2023-01-08T08:04:51.433Z,34.53
2023-01-08T08:06:38.590Z,34.53
2023-01-08T08:08:26.057Z,34.40
2023-01-08T08:10:13.180Z,34.40
2023-01-08T08:12:00.336Z,34.45
2023-01-08T08:13:52.094Z,34.65
2023-01-08T08:15:41.316Z,34.15
2023-01-08T08:17:28.473Z,33.67
2023-01-08T08:19:16.132Z,34.20
2023-01-08T08:21:04.041Z,33.90
2023-01-08T08:22:51.581Z,33.25
2023-01-08T08:24:39.091Z,34.00
2023-01-08T08:26:26.323Z,32.72
2023-01-08T08:28:13.570Z,33.85
2023-01-08T08:30:01.109Z,34.47
2023-01-08T08:31:48.290Z,36.00
2023-01-08T08:33:35.573Z,35.55
2023-01-08T08:35:23.197Z,34.90
2023-01-08T08:37:10.362Z,33.25
2023-01-08T08:38:57.698Z,35.05
2023-01-08T08:40:45.311Z,34.90
2023-01-08T08:42:32.430Z,33.95
2023-01-08T08:44:19.612Z,34.20
2023-01-08T08:46:07.101Z,33.83
2023-01-08T08:47:54.660Z,32.47
2023-01-08T08:49:41.877Z,32.00
2023-01-08T08:51:29.502Z,34.75
2023-01-08T08:53:16.874Z,36.25
2023-01-08T08:55:04.443Z,33.85
2023-01-08T08:56:51.906Z,33.45
2023-01-08T08:58:41.756Z,32.78
2023-01-08T09:00:29.181Z,33.22
2023-01-08T09:02:16.980Z,33.35
2023-01-08T09:04:04.231Z,33.08
2023-01-08T09:05:51.610Z,34.10
2023-01-08T09:07:39.172Z,34.72
2023-01-08T09:09:26.943Z,33.92
2023-01-08T09:11:14.619Z,33.45
2023-01-08T09:13:02.178Z,35.30
2023-01-08T09:14:50.290Z,35.70
2023-01-08T09:16:37.594Z,35.05
2023-01-08T09:18:25.184Z,32.92
2023-01-08T09:20:12.902Z,34.08
2023-01-08T09:22:01.549Z,34.80
2023-01-08T09:23:49.754Z,33.92
2023-01-08T09:25:36.882Z,36.03
2023-01-08T09:27:24.321Z,31.02
2023-01-08T09:29:11.733Z,31.02
2023-01-08T09:31:03.563Z,30.05
2023-01-08T09:32:50.756Z,29.60
2023-01-08T09:34:38.342Z,30.73
2023-01-08T09:36:25.522Z,31.80
2023-01-08T09:38:12.809Z,30.33
2023-01-08T09:40:02.545Z,29.63
2023-01-08T09:41:51.680Z,30.85
2023-01-08T09:43:43.940Z,29.77
2023-01-08T09:45:33.811Z,30.70
2023-01-08T09:47:37.426Z,29.65
2023-01-08T09:49:38.840Z,28.70
2023-01-08T09:51:33.291Z,28.15
2023-01-08T09:53:20.825Z,28.17
2023-01-08T09:55:15.663Z,30.05
2023-01-08T09:57:03.661Z,29.45
2023-01-08T09:58:56.017Z,28.85
2023-01-08T10:00:43.177Z,29.02
2023-01-08T10:02:34.922Z,28.70
2023-01-08T10:04:25.447Z,28.92
2023-01-08T10:06:15.970Z,30.33
2023-01-08T10:08:04.796Z,29.30
2023-01-08T10:09:53.202Z,28.92
2023-01-08T10:11:46.193Z,28.67
2023-01-08T10:13:39.611Z,28.83
2023-01-08T10:15:26.913Z,29.35
2023-01-08T10:17:43.943Z,28.13
2023-01-08T10:19:32.090Z,25.90
2023-01-08T10:21:19.477Z,28.30
2023-01-08T10:23:13.218Z,27.95
2023-01-08T10:25:16.949Z,30.05
2023-01-08T10:27:15.227Z,30.73
2023-01-08T10:29:11.817Z,32.00
2023-01-08T10:31:09.183Z,30.55
2023-01-08T10:33:02.453Z,28.75
2023-01-08T10:34:51.835Z,29.77
2023-01-08T10:36:41.621Z,29.92
2023-01-08T10:38:42.637Z,28.23
2023-01-08T10:40:46.116Z,29.05
2023-01-08T10:42:35.965Z,27.52
2023-01-08T10:44:24.773Z,27.48
2023-01-08T10:46:22.615Z,27.60
2023-01-08T10:48:17.630Z,28.00
2023-01-08T10:50:12.870Z,27.17
2023-01-08T10:52:01.041Z,26.67
2023-01-08T10:53:48.996Z,26.52
2023-01-08T10:55:37.674Z,27.33
2023-01-08T10:57:27.063Z,28.00
2023-01-08T10:59:23.089Z,28.15
2023-01-08T11:01:16.250Z,27.63
2023-01-08T11:03:08.845Z,26.58
2023-01-08T11:04:56.801Z,28.52
2023-01-08T11:06:45.445Z,28.75
2023-01-08T11:08:33.437Z,28.88
2023-01-08T11:10:26.965Z,27.35
2023-01-08T11:12:41.248Z,27.88
2023-01-08T11:14:35.252Z,29.60
2023-01-08T11:16:30.259Z,31.48
2023-01-08T11:18:24.649Z,28.90
2023-01-08T11:20:23.685Z,25.60
2023-01-08T11:22:30.524Z,27.23
2023-01-08T11:24:37.511Z,26.83
2023-01-08T11:26:24.962Z,27.27
2023-01-08T11:28:19.556Z,26.48
2023-01-08T11:30:36.364Z,26.08
2023-01-08T11:34:37.342Z,26.13
2023-01-08T11:36:30.393Z,25.10
2023-01-08T11:38:17.943Z,26.40
2023-01-08T11:40:15.275Z,25.05
2023-01-08T11:42:14.450Z,26.77
2023-01-08T11:44:23.530Z,26.52
2023-01-08T11:46:27.763Z,26.95
2023-01-08T11:48:30.311Z,26.23
2023-01-08T11:50:29.776Z,26.15
2023-01-08T11:52:31.946Z,26.52
2023-01-08T11:54:49.326Z,25.00
2023-01-08T11:56:54.881Z,26.42
2023-01-08T11:59:18.808Z,28.33
2023-01-08T12:01:16.586Z,26.85
2023-01-08T12:05:28.239Z,29.48
2023-01-08T12:07:40.364Z,28.58
2023-01-08T12:09:54.595Z,24.58
2023-01-08T12:12:20.704Z,28.90
2023-01-08T12:14:43.876Z,29.50
2023-01-08T12:16:43.228Z,25.67
2023-01-08T12:18:36.167Z,26.65
2023-01-08T12:20:37.689Z,26.67
2023-01-08T12:22:52.759Z,26.67
2023-01-08T12:24:52.251Z,26.30
2023-01-08T12:26:54.949Z,27.70
2023-01-08T12:29:25.838Z,26.52
2023-01-08T12:32:02.603Z,26.50
2023-01-08T12:33:53.550Z,25.20
2023-01-08T12:35:47.772Z,27.05
2023-01-08T12:37:51.839Z,28.02
2023-01-08T12:39:50.711Z,27.00
2023-01-08T12:41:40.938Z,27.55
2023-01-08T12:43:40.908Z,27.88
2023-01-08T12:45:31.100Z,29.60
2023-01-08T12:47:23.191Z,29.58
2023-01-08T12:49:16.004Z,28.55
2023-01-08T12:51:19.317Z,28.48
2023-01-08T12:53:44.156Z,29.67
2023-01-08T12:55:45.357Z,31.52
2023-01-08T12:57:40.360Z,29.45
2023-01-08T12:59:49.397Z,30.80
2023-01-08T13:02:14.102Z,30.67
2023-01-08T13:04:04.332Z,30.63
2023-01-08T13:05:52.179Z,30.30
2023-01-08T13:07:49.366Z,29.65
2023-01-08T13:09:36.809Z,29.45
2023-01-08T13:11:30.613Z,28.73
2023-01-08T13:13:34.243Z,28.38
2023-01-08T13:15:25.324Z,30.30
2023-01-08T13:17:21.519Z,28.45
2023-01-08T13:19:27.856Z,27.45
2023-01-08T13:21:15.468Z,28.92
2023-01-08T13:23:05.825Z,27.83
2023-01-08T13:25:26.206Z,29.30
2023-01-08T13:27:17.025Z,32.30
2023-01-08T13:29:22.864Z,26.33
2023-01-08T13:31:22.380Z,27.05
2023-01-08T13:33:27.295Z,26.30
2023-01-08T13:35:17.490Z,27.35
2023-01-08T13:37:05.405Z,27.27
2023-01-08T13:39:02.093Z,27.63
2023-01-08T13:40:53.643Z,28.73
2023-01-08T13:42:42.088Z,26.75
2023-01-08T13:44:35.907Z,27.15
2023-01-08T13:46:23.184Z,28.40
2023-01-08T13:48:44.489Z,30.08
2023-01-08T13:50:33.157Z,25.23
2023-01-08T13:52:31.630Z,26.33
2023-01-08T13:54:35.530Z,27.10
2023-01-08T13:56:23.706Z,28.05
2023-01-08T13:58:19.559Z,28.55
2023-01-08T14:00:17.595Z,30.40
2023-01-08T14:04:07.452Z,27.70
2023-01-08T14:06:17.166Z,27.88
2023-01-08T14:08:04.720Z,28.48
2023-01-08T14:09:52.800Z,28.92
2023-01-08T14:11:46.760Z,29.98
2023-01-08T14:13:35.725Z,28.08
2023-01-08T14:15:27.669Z,28.33
2023-01-08T14:17:17.911Z,29.73
2023-01-08T14:19:05.505Z,28.65
2023-01-08T14:20:52.990Z,28.45
2023-01-08T14:22:42.615Z,28.85
2023-01-08T14:24:30.231Z,27.17
2023-01-08T14:26:32.026Z,29.23
2023-01-08T14:28:23.128Z,29.50
2023-01-08T14:30:17.573Z,29.23
2023-01-08T14:32:16.471Z,30.83
2023-01-08T14:34:05.371Z,31.23
2023-01-08T14:35:55.156Z,31.05
2023-01-08T14:37:42.501Z,29.80
2023-01-08T14:39:39.108Z,31.05
2023-01-08T14:41:55.727Z,28.63
2023-01-08T14:43:45.429Z,27.52
2023-01-08T14:45:34.507Z,27.00
2023-01-08T14:47:24.313Z,28.10
2023-01-08T14:49:44.488Z,26.90
2023-01-08T14:51:32.617Z,26.48
2023-01-08T14:55:18.593Z,25.60
2023-01-08T14:57:06.756Z,26.13
2023-01-08T14:58:55.516Z,25.98
2023-01-08T15:00:43.381Z,26.08
2023-01-08T15:02:37.649Z,25.30
2023-01-08T15:04:25.587Z,25.95
2023-01-08T15:06:23.357Z,25.83
2023-01-08T15:08:25.223Z,24.80
2023-01-08T15:10:34.199Z,24.65
2023-01-08T15:12:27.278Z,23.88
2023-01-08T15:14:15.169Z,24.92
2023-01-08T15:16:11.898Z,25.08
2023-01-08T15:17:59.532Z,25.95
2023-01-08T15:19:59.047Z,24.90
2023-01-08T15:21:51.568Z,26.42
2023-01-08T15:23:46.521Z,24.63
2023-01-08T15:25:33.827Z,25.63
2023-01-08T15:27:24.148Z,27.08
2023-01-08T15:29:24.076Z,29.70
2023-01-08T15:31:11.856Z,29.17
2023-01-08T15:33:29.086Z,30.65
2023-01-08T15:35:19.610Z,29.60
2023-01-08T15:37:08.759Z,27.33
2023-01-08T15:38:56.274Z,28.55
2023-01-08T15:40:44.724Z,26.17
2023-01-08T15:42:52.430Z,27.40
2023-01-08T15:44:39.882Z,26.63
2023-01-08T15:46:27.256Z,27.13
2023-01-08T15:48:15.293Z,26.50
2023-01-08T15:51:52.261Z,26.08
2023-01-08T15:53:42.738Z,25.30
2023-01-08T15:55:32.398Z,26.65
2023-01-08T15:57:21.890Z,26.70
2023-01-08T15:59:10.223Z,26.42
2023-01-08T16:02:47.621Z,26.77
2023-01-08T16:04:35.386Z,27.77
2023-01-08T16:06:22.684Z,26.83
2023-01-08T16:08:11.138Z,26.98
2023-01-08T16:09:58.605Z,26.73
2023-01-08T16:11:45.826Z,27.33
2023-01-08T16:13:33.017Z,26.80
2023-01-08T16:15:20.622Z,29.13
2023-01-08T16:17:10.356Z,29.27
2023-01-08T16:18:59.207Z,26.75
2023-01-08T16:20:46.679Z,26.23
2023-01-08T16:22:33.858Z,25.73
2023-01-08T16:24:20.998Z,25.58
2023-01-08T16:26:11.413Z,26.85
2023-01-08T16:27:58.717Z,26.50
2023-01-08T16:29:47.051Z,28.33
2023-01-08T16:31:36.404Z,28.50
2023-01-08T16:33:25.536Z,27.00
2023-01-08T16:35:12.946Z,27.23
2023-01-08T16:38:48.710Z,26.38
2023-01-08T16:40:37.099Z,26.70
2023-01-08T16:42:25.580Z,26.63
2023-01-08T16:44:22.275Z,28.02
2023-01-08T16:46:16.631Z,27.33
2023-01-08T16:48:05.307Z,27.90
2023-01-08T16:49:52.613Z,28.83
2023-01-08T16:51:40.912Z,28.30
2023-01-08T16:53:28.706Z,29.55
2023-01-08T16:55:16.458Z,29.83
2023-01-08T16:57:04.683Z,30.45
2023-01-08T16:58:53.672Z,30.20
2023-01-08T17:00:41.919Z,29.50
2023-01-08T17:02:31.397Z,29.15
2023-01-08T17:04:20.270Z,30.98
2023-01-08T17:06:10.508Z,32.72
2023-01-08T17:07:57.873Z,31.88
2023-01-08T17:09:45.566Z,30.90
2023-01-08T17:11:32.863Z,30.27
2023-01-08T17:13:20.032Z,31.73
2023-01-08T17:15:08.031Z,31.00
2023-01-08T17:16:55.322Z,31.48
2023-01-08T17:18:42.548Z,32.50
2023-01-08T17:20:30.295Z,33.63
2023-01-08T17:22:17.534Z,31.88
2023-01-08T17:24:06.226Z,31.75
2023-01-08T17:25:56.047Z,30.95
2023-01-08T17:27:43.843Z,30.95
2023-01-08T17:29:31.233Z,31.35
2023-01-08T17:33:07.265Z,29.40
2023-01-08T17:34:54.656Z,29.83
2023-01-08T17:36:42.788Z,32.17
2023-01-08T17:40:17.272Z,31.73
2023-01-08T17:42:23.649Z,30.77
2023-01-08T17:44:12.722Z,32.00
2023-01-08T17:46:05.945Z,32.08
2023-01-08T17:47:53.623Z,31.25
2023-01-08T17:49:40.988Z,33.75
2023-01-08T17:51:28.240Z,32.35
2023-01-08T17:53:15.854Z,32.22
2023-01-08T17:55:03.171Z,32.47
2023-01-08T17:56:53.920Z,32.78
2023-01-08T17:58:41.133Z,33.63
2023-01-08T18:00:28.423Z,34.50
2023-01-08T18:02:17.066Z,32.53
2023-01-08T18:04:04.676Z,33.85
2023-01-08T18:05:51.855Z,34.05
2023-01-08T18:07:39.428Z,32.58
2023-01-08T18:09:26.906Z,33.50
2023-01-08T18:11:14.675Z,33.95
2023-01-08T18:14:49.895Z,32.15
2023-01-08T18:18:25.697Z,33.60
2023-01-08T18:20:13.135Z,33.13
2023-01-08T18:22:01.102Z,34.42
2023-01-08T18:23:48.695Z,34.70
2023-01-08T18:25:40.889Z,35.10
2023-01-08T18:27:28.075Z,34.70
2023-01-08T18:29:16.340Z,34.92
2023-01-08T18:31:08.618Z,33.53
2023-01-08T18:32:57.777Z,33.03
2023-01-08T18:34:46.104Z,34.08
2023-01-08T18:36:33.476Z,34.88
2023-01-08T18:38:20.751Z,36.13
2023-01-08T18:40:08.920Z,37.13
2023-01-08T18:42:14.932Z,34.78
2023-01-08T18:44:04.938Z,33.55
2023-01-08T18:45:52.838Z,36.70
2023-01-08T18:49:27.654Z,37.15
2023-01-08T18:51:15.689Z,36.78
2023-01-08T18:53:04.987Z,38.60
2023-01-08T18:54:53.654Z,38.15
2023-01-08T18:56:42.509Z,38.92
2023-01-08T18:58:30.785Z,39.38
2023-01-08T19:00:18.510Z,39.08
2023-01-08T19:02:06.292Z,39.60
2023-01-08T19:03:53.856Z,37.95
2023-01-08T19:05:44.791Z,38.22
2023-01-08T19:07:32.741Z,40.38
2023-01-08T19:09:20.260Z,38.58
2023-01-08T19:11:09.571Z,39.88
2023-01-08T19:12:58.435Z,40.53
2023-01-08T19:14:47.187Z,38.40
2023-01-08T19:16:35.998Z,39.42
2023-01-08T19:18:24.492Z,39.17
2023-01-08T19:20:13.041Z,37.63
2023-01-08T19:22:01.266Z,37.13
2023-01-08T19:23:51.247Z,37.45
2023-01-08T19:25:40.552Z,40.38
2023-01-08T19:27:27.974Z,40.03
2023-01-08T19:29:16.527Z,40.50
2023-01-08T19:31:06.581Z,41.45
2023-01-08T19:32:55.427Z,42.88
2023-01-08T19:34:44.935Z,41.50
2023-01-08T19:36:34.689Z,42.05
2023-01-08T19:38:22.952Z,41.88
2023-01-08T19:40:12.697Z,42.17
2023-01-08T19:42:20.604Z,42.38
2023-01-08T19:44:10.061Z,42.10
2023-01-08T19:46:07.683Z,40.60
2023-01-08T19:47:57.435Z,42.22
2023-01-08T19:49:49.497Z,43.60
2023-01-08T19:51:38.680Z,42.63
2023-01-08T19:53:27.945Z,43.80
2023-01-08T19:55:17.943Z,41.47
2023-01-08T19:57:07.831Z,43.53
2023-01-08T19:58:57.610Z,43.45
2023-01-08T20:00:46.950Z,45.42
2023-01-08T20:02:36.054Z,43.80
2023-01-08T20:04:24.904Z,44.55
2023-01-08T20:06:19.409Z,44.83
2023-01-08T20:08:08.607Z,43.25
2023-01-08T20:09:58.562Z,46.40
2023-01-08T20:11:47.420Z,45.92
2023-01-08T20:13:37.270Z,45.33
2023-01-08T20:15:25.783Z,46.22
2023-01-08T20:17:14.359Z,45.08
2023-01-08T20:19:04.983Z,45.70
2023-01-08T20:20:53.346Z,45.20
2023-01-08T20:22:43.600Z,45.60
2023-01-08T20:24:32.939Z,45.20
2023-01-08T20:26:23.663Z,45.53
2023-01-08T20:28:12.661Z,45.20
2023-01-08T20:30:03.285Z,46.95
2023-01-08T20:31:57.054Z,45.88
2023-01-08T20:33:45.267Z,46.30
2023-01-08T20:35:37.078Z,46.00
2023-01-08T20:37:24.835Z,45.25
2023-01-08T20:39:15.292Z,46.33
2023-01-08T20:41:06.637Z,47.10
2023-01-08T20:42:54.033Z,46.05
2023-01-08T20:44:41.985Z,46.25
2023-01-08T20:46:30.774Z,47.97
2023-01-08T20:48:19.324Z,47.80
2023-01-08T20:50:19.251Z,46.00
2023-01-08T20:52:08.419Z,46.67
2023-01-08T20:53:56.875Z,47.63
2023-01-08T20:55:45.051Z,47.95
2023-01-08T20:57:32.956Z,48.97
2023-01-08T20:59:20.711Z,47.63
2023-01-08T21:01:11.516Z,47.17
2023-01-08T21:02:59.516Z,48.33
2023-01-08T21:04:46.741Z,47.20
2023-01-08T21:06:34.786Z,47.70
2023-01-08T21:08:22.273Z,48.50
2023-01-08T21:10:10.606Z,49.88
2023-01-08T21:11:57.945Z,48.08
2023-01-08T21:13:46.008Z,48.45
2023-01-08T21:15:39.068Z,48.10
2023-01-08T21:17:26.692Z,50.40
2023-01-08T21:19:15.614Z,48.65
2023-01-08T21:21:05.318Z,49.55
2023-01-08T21:22:52.561Z,48.38
2023-01-08T21:24:41.124Z,47.55
2023-01-08T21:26:28.766Z,48.90
2023-01-08T21:28:16.078Z,50.55
2023-01-08T21:30:05.280Z,49.83
2023-01-08T21:31:52.697Z,48.78
2023-01-08T21:33:40.389Z,51.70
2023-01-08T21:35:27.887Z,49.90
2023-01-08T21:37:15.802Z,49.40
2023-01-08T21:43:04.708Z,46.75
2023-01-08T21:45:10.755Z,47.60
2023-01-08T21:46:59.800Z,48.65
2023-01-08T21:48:52.104Z,49.22
2023-01-08T21:50:39.425Z,49.88
2023-01-08T21:52:45.440Z,50.35
2023-01-08T21:54:32.828Z,49.63
2023-01-08T21:56:20.013Z,50.30
2023-01-08T21:58:07.884Z,50.88
2023-01-08T21:59:55.692Z,49.58
2023-01-08T22:03:32.098Z,49.47
2023-01-08T22:05:19.280Z,50.58
2023-01-08T22:07:06.857Z,52.67
2023-01-08T22:10:44.256Z,48.60
2023-01-08T22:12:31.500Z,49.80
2023-01-08T22:14:18.856Z,49.90
2023-01-08T22:16:09.775Z,50.90
2023-01-08T22:17:56.886Z,49.22
2023-01-08T22:19:44.383Z,48.50
2023-01-08T22:21:31.578Z,48.88
2023-01-08T22:23:18.703Z,48.20
2023-01-08T22:25:06.599Z,48.50
2023-01-08T22:26:53.834Z,46.22
2023-01-08T22:28:41.505Z,46.85
2023-01-08T22:30:28.962Z,48.33
2023-01-08T22:32:16.100Z,46.13
2023-01-08T22:34:03.448Z,47.35
2023-01-08T22:35:50.815Z,46.35
2023-01-08T22:37:38.218Z,45.85
2023-01-08T22:39:25.510Z,44.42
2023-01-08T22:41:21.143Z,45.78
2023-01-08T22:43:08.364Z,45.47
2023-01-08T22:46:43.511Z,46.05
2023-01-08T22:48:30.607Z,49.70
2023-01-08T22:50:17.785Z,48.33
2023-01-08T22:52:05.949Z,48.72
2023-01-08T22:53:53.467Z,48.67
2023-01-08T22:55:48.425Z,48.13
2023-01-08T22:57:35.722Z,45.75
2023-01-08T22:59:23.029Z,46.20
2023-01-08T23:01:14.084Z,46.25
2023-01-08T23:03:01.736Z,45.80
2023-01-08T23:04:51.051Z,35.20
2023-01-08T23:06:38.249Z,45.80
2023-01-08T23:08:25.582Z,45.63
2023-01-08T23:10:13.100Z,45.42
2023-01-08T23:12:00.153Z,44.70
2023-01-08T23:13:48.666Z,44.78
2023-01-08T23:17:22.924Z,43.67
2023-01-08T23:19:10.780Z,44.40
2023-01-08T23:21:07.925Z,46.17
2023-01-08T23:22:54.950Z,46.50
2023-01-08T23:24:42.409Z,45.75
2023-01-08T23:26:29.973Z,44.13
2023-01-08T23:28:17.128Z,44.17
2023-01-08T23:30:05.220Z,43.63
2023-01-08T23:33:39.576Z,44.33
2023-01-08T23:35:27.130Z,44.53
2023-01-08T23:37:14.928Z,44.63
2023-01-08T23:40:49.766Z,43.88
2023-01-08T23:42:36.998Z,44.10
2023-01-08T23:44:24.178Z,45.10
2023-01-08T23:46:13.470Z,44.53
2023-01-08T23:48:00.775Z,42.05
2023-01-08T23:49:47.866Z,42.33
2023-01-08T23:51:35.554Z,43.47
2023-01-08T23:53:23.389Z,42.00
2023-01-08T23:55:10.527Z,44.45
2023-01-08T23:56:57.945Z,44.75
2023-01-08T23:58:45.805Z,44.47
